Time;durP1;ratioP1;P1;durP2;ratioP2;P2;SDS_P1;SDS_P2;PMS_P1;PMS_P2;Temp;Humidity;BMP_temperature;BMP_pressure;BME280_temperature;BME280_humidity;BME280_pressure;Samples;Min_cycle;Max_cycle;Signal;HPM_P1;HPM_P2
2022/07/16 00:01:49;;;;;;;0.50;0.50;;;14.70;99.90;;;;;;5034327;28;20706;-75
2022/07/16 00:04:14;;;;;;;0.30;0.30;;;14.60;1.00;;;;;;5034179;28;20168;-75
2022/07/16 00:06:43;;;;;;;0.30;0.30;;;14.60;1.00;;;;;;5033933;28;20180;-75
2022/07/16 00:09:10;;;;;;;0.43;0.43;;;14.40;1.00;;;;;;5033194;28;20263;-75
2022/07/16 00:11:35;;;;;;;0.40;0.40;;;14.20;99.90;;;;;;5033845;28;20219;-75
2022/07/16 00:14:01;;;;;;;0.40;0.40;;;14.00;99.90;;;;;;5034114;28;20176;-75
2022/07/16 00:16:26;;;;;;;0.40;0.40;;;13.90;99.90;;;;;;5034031;28;20172;-75
2022/07/16 00:21:36;;;;;;;0.40;0.40;;;13.80;99.90;;;;;;5033800;28;20183;-74
2022/07/16 00:24:01;;;;;;;0.40;0.40;;;13.80;1.00;;;;;;5033732;28;20267;-75
2022/07/16 00:26:27;;;;;;;0.40;0.40;;;13.80;1.00;;;;;;5033604;28;20222;-75
2022/07/16 00:28:52;;;;;;;0.47;0.47;;;13.80;1.00;;;;;;5033256;28;20195;-75
2022/07/16 00:31:18;;;;;;;0.40;0.40;;;13.70;99.90;;;;;;5033531;28;20211;-74
2022/07/16 00:33:43;;;;;;;0.50;0.50;;;13.70;99.90;;;;;;5033425;28;20599;-74
2022/07/16 00:36:09;;;;;;;0.50;0.50;;;13.70;99.90;;;;;;5033558;28;20671;-74
2022/07/16 00:38:34;;;;;;;0.47;0.47;;;13.70;1.00;;;;;;5033466;28;20184;-75
2022/07/16 00:41:00;;;;;;;0.50;0.50;;;13.70;1.00;;;;;;5032747;28;20215;-75
2022/07/16 00:43:25;;;;;;;0.40;0.40;;;13.80;1.00;;;;;;5033094;28;20196;-75
2022/07/16 00:45:51;;;;;;;0.40;0.40;;;13.80;1.00;;;;;;5033335;28;20176;-75
2022/07/16 00:48:16;;;;;;;0.40;0.40;;;13.80;1.00;;;;;;5033392;28;20179;-75
2022/07/16 00:50:42;;;;;;;0.40;0.40;;;13.80;1.00;;;;;;5032637;28;20650;-75
2022/07/16 00:53:09;;;;;;;0.43;0.43;;;13.80;1.00;;;;;;5033016;28;20202;-75
2022/07/16 00:55:35;;;;;;;0.40;0.40;;;13.70;1.00;;;;;;5033048;28;20187;-74
2022/07/16 00:58:01;;;;;;;0.30;0.30;;;13.70;14.60;;;;;;5032351;28;20179;-74
2022/07/16 01:00:27;;;;;;;0.30;0.30;;;13.70;1.00;;;;;;5032268;28;20226;-74
2022/07/16 01:02:53;;;;;;;0.37;0.37;;;13.70;99.90;;;;;;5032792;28;20202;-75
2022/07/16 01:05:19;;;;;;;0.30;0.30;;;13.60;90.00;;;;;;5032981;28;20184;-75
2022/07/16 01:07:45;;;;;;;0.33;0.33;;;13.60;99.90;;;;;;5032934;28;20206;-74
2022/07/16 01:10:12;;;;;;;0.40;0.40;;;13.60;99.90;;;;;;5031999;28;20219;-75
2022/07/16 01:12:38;;;;;;;0.33;0.33;;;13.60;1.00;;;;;;5032956;28;20196;-74
2022/07/16 01:15:05;;;;;;;0.40;0.40;;;13.50;1.00;;;;;;5032488;28;20186;-74
2022/07/16 01:17:30;;;;;;;0.37;0.37;;;13.50;1.00;;;;;;5032781;28;20267;-74
2022/07/16 01:19:56;;;;;;;0.50;0.50;;;13.40;99.90;;;;;;5032119;28;20310;-74
2022/07/16 01:22:24;;;;;;;0.50;0.50;;;13.40;99.90;;;;;;5032580;28;20556;-74
2022/07/16 01:24:50;;;;;;;0.33;0.33;;;13.40;1.00;;;;;;5032666;28;20210;-74
2022/07/16 01:27:19;;;;;;;0.40;0.40;;;13.30;99.90;;;;;;5032717;28;20225;-74
2022/07/16 01:29:45;;;;;;;0.60;0.60;;;13.30;99.90;;;;;;5031998;28;20179;-74
2022/07/16 01:32:11;;;;;;;0.40;0.40;;;13.20;99.90;;;;;;5032505;28;20295;-74
2022/07/16 01:34:38;;;;;;;0.40;0.40;;;13.20;1.00;;;;;;5029558;28;20681;-74
2022/07/16 01:37:06;;;;;;;0.40;0.40;;;13.20;1.00;;;;;;5041499;28;20183;-74
2022/07/16 01:39:34;;;;;;;0.40;0.40;;;13.10;89.10;;;;;;5040181;28;20204;-74
2022/07/16 01:42:02;;;;;;;0.40;0.40;;;13.10;99.90;;;;;;5032300;28;20261;-74
2022/07/16 01:44:29;;;;;;;0.40;0.40;;;13.10;99.90;;;;;;5032390;28;20211;-74
2022/07/16 01:46:56;;;;;;;0.40;0.40;;;13.10;99.90;;;;;;5032152;28;20187;-75
2022/07/16 01:49:22;;;;;;;0.37;0.37;;;13.10;99.90;;;;;;5031783;28;20183;-75
2022/07/16 01:51:49;;;;;;;0.50;0.50;;;13.10;99.90;;;;;;5031844;28;20303;-75
2022/07/16 01:54:15;;;;;;;0.50;0.50;;;13.10;99.90;;;;;;5032092;28;20203;-74
2022/07/16 01:56:40;;;;;;;0.53;0.53;;;13.10;99.90;;;;;;5032157;28;20176;-74
2022/07/16 01:59:06;;;;;;;0.50;0.50;;;13.10;1.00;;;;;;5031322;28;20168;-74
2022/07/16 02:01:32;;;;;;;0.50;0.50;;;13.10;1.00;;;;;;5031991;28;20183;-74
2022/07/16 02:03:58;;;;;;;0.40;0.40;;;13.10;1.00;;;;;;5031859;28;20183;-75
2022/07/16 02:06:24;;;;;;;0.40;0.40;;;13.00;1.00;;;;;;5031780;28;20190;-75
2022/07/16 02:08:49;;;;;;;0.40;0.40;;;13.00;1.00;;;;;;5031670;28;20179;-75
2022/07/16 02:11:15;;;;;;;0.40;0.40;;;12.90;1.00;;;;;;5031173;28;20353;-75
2022/07/16 02:13:42;;;;;;;0.40;0.40;;;12.90;1.00;;;;;;5031595;28;20275;-75
2022/07/16 02:16:08;;;;;;;0.40;0.40;;;12.80;1.00;;;;;;5031709;28;20175;-75
2022/07/16 02:18:33;;;;;;;0.40;0.40;;;12.80;1.00;;;;;;5031796;28;20168;-75
2022/07/16 02:20:59;;;;;;;0.40;0.40;;;12.70;1.00;;;;;;5031088;28;20179;-75
2022/07/16 02:23:25;;;;;;;0.50;0.50;;;12.70;11.90;;;;;;5031801;28;20643;-75
2022/07/16 02:25:51;;;;;;;0.40;0.40;;;12.70;99.90;;;;;;5031768;28;20676;-75
2022/07/16 02:28:16;;;;;;;0.50;0.50;;;12.60;2.90;;;;;;5031509;28;20259;-75
2022/07/16 02:30:45;;;;;;;0.50;0.50;;;12.60;1.00;;;;;;5031096;28;20268;-75
2022/07/16 02:33:13;;;;;;;0.50;0.50;;;12.60;1.00;;;;;;5031465;28;20219;-75
2022/07/16 02:35:38;;;;;;;0.40;0.40;;;12.60;1.00;;;;;;5031444;28;20790;-75
2022/07/16 02:38:06;;;;;;;0.53;0.53;;;12.60;1.00;;;;;;5031637;28;20184;-75
2022/07/16 02:40:35;;;;;;;0.40;0.40;;;12.60;1.00;;;;;;5031699;28;20206;-74
2022/07/16 02:43:02;;;;;;;0.50;0.50;;;12.60;30.30;;;;;;5032337;28;20199;-74
2022/07/16 02:45:28;;;;;;;0.40;0.40;;;12.60;1.00;;;;;;5031820;28;20168;-75
2022/07/16 02:47:54;;;;;;;0.40;0.40;;;12.60;1.00;;;;;;5031888;28;20172;-75
2022/07/16 02:50:20;;;;;;;0.50;0.50;;;12.60;1.00;;;;;;5031034;28;20735;-75
2022/07/16 02:52:45;;;;;;;0.50;0.50;;;12.50;1.00;;;;;;5031501;28;20191;-75
2022/07/16 02:55:11;;;;;;;0.40;0.40;;;12.50;99.90;;;;;;5031298;28;20168;-75
2022/07/16 02:57:37;;;;;;;0.40;0.40;;;12.50;99.90;;;;;;5031459;28;20198;-75
2022/07/16 03:00:05;;;;;;;0.47;0.47;;;12.40;99.90;;;;;;5031052;28;20168;-75
2022/07/16 03:02:31;;;;;;;0.50;0.50;;;12.40;99.90;;;;;;5031191;28;20748;-74
2022/07/16 03:04:56;;;;;;;0.40;0.40;;;12.40;99.90;;;;;;5031323;28;20263;-74
2022/07/16 03:07:22;;;;;;;0.40;0.40;;;12.40;99.90;;;;;;5031590;28;20203;-74
2022/07/16 03:09:47;;;;;;;0.50;0.50;;;12.30;1.00;;;;;;5031169;28;20206;-74
2022/07/16 03:12:13;;;;;;;0.40;0.40;;;12.30;48.40;;;;;;5031171;28;20208;-75
2022/07/16 03:14:38;;;;;;;0.50;0.50;;;12.30;99.90;;;;;;5031261;28;20225;-74
2022/07/16 03:17:04;;;;;;;0.50;0.50;;;12.30;99.90;;;;;;5031059;28;20183;-75
2022/07/16 03:19:29;;;;;;;0.40;0.40;;;12.30;45.70;;;;;;5030609;28;20180;-74
2022/07/16 03:21:55;;;;;;;0.50;0.50;;;12.20;99.90;;;;;;5034353;28;20207;-75
2022/07/16 03:24:20;;;;;;;0.40;0.40;;;12.20;99.90;;;;;;5034979;28;20263;-75
2022/07/16 03:26:46;;;;;;;0.40;0.40;;;12.20;99.90;;;;;;5035053;28;20182;-74
2022/07/16 03:29:11;;;;;;;0.40;0.40;;;12.10;99.90;;;;;;5034209;28;20245;-75
2022/07/16 03:31:37;;;;;;;0.40;0.40;;;12.10;99.90;;;;;;5034356;28;20207;-75
2022/07/16 03:34:02;;;;;;;0.40;0.40;;;12.00;99.90;;;;;;5034784;28;20167;-75
2022/07/16 03:36:28;;;;;;;0.40;0.40;;;12.00;1.00;;;;;;5034688;28;20176;-75
2022/07/16 03:39:06;;;;;;;0.50;0.50;;;12.00;1.00;;;;;;5034244;28;20191;-75
2022/07/16 03:41:36;;;;;;;0.47;0.47;;;11.90;1.00;;;;;;5034512;28;20183;-74
2022/07/16 03:44:04;;;;;;;0.43;0.43;;;11.80;99.90;;;;;;5034576;28;20179;-74
2022/07/16 03:46:30;;;;;;;0.40;0.40;;;11.60;1.00;;;;;;5034714;28;20176;-74
2022/07/16 03:48:57;;;;;;;0.50;0.50;;;11.50;1.00;;;;;;5058499;22;20261;-76
2022/07/16 03:51:23;;;;;;;0.40;0.40;;;11.50;1.00;;;;;;5034069;28;20212;-76
2022/07/16 03:53:49;;;;;;;0.50;0.50;;;11.40;1.00;;;;;;5034271;28;20199;-76
2022/07/16 03:56:14;;;;;;;0.40;0.40;;;11.30;1.00;;;;;;5034126;28;20183;-76
2022/07/16 03:58:40;;;;;;;0.50;0.50;;;11.40;1.00;;;;;;5034073;28;20230;-75
2022/07/16 04:01:07;;;;;;;0.43;0.43;;;11.40;1.00;;;;;;5033836;28;20628;-76
2022/07/16 04:03:33;;;;;;;0.57;0.57;;;11.40;1.00;;;;;;5033972;28;20191;-76
2022/07/16 04:05:59;;;;;;;0.40;0.40;;;11.50;1.00;;;;;;5034089;28;20180;-76
2022/07/16 04:08:24;;;;;;;0.60;0.60;;;11.50;1.00;;;;;;5033848;28;20182;-76
2022/07/16 04:10:50;;;;;;;0.60;0.60;;;11.50;1.00;;;;;;5033173;28;20313;-75
2022/07/16 04:13:15;;;;;;;0.50;0.50;;;11.50;1.00;;;;;;5033615;28;20199;-76
2022/07/16 04:15:41;;;;;;;0.57;0.57;;;11.50;1.00;;;;;;5033721;28;20187;-75
2022/07/16 04:18:06;;;;;;;0.60;0.60;;;11.50;1.00;;;;;;5033908;28;20168;-76
2022/07/16 04:20:32;;;;;;;0.40;0.40;;;11.60;1.00;;;;;;5033195;28;20168;-76
2022/07/16 04:22:58;;;;;;;0.40;0.40;;;11.60;1.00;;;;;;5033588;28;20245;-75
2022/07/16 04:25:23;;;;;;;0.40;0.40;;;11.70;1.00;;;;;;5033444;28;20242;-76
2022/07/16 04:27:49;;;;;;;0.50;0.50;;;11.70;1.00;;;;;;5033508;28;20172;-76
2022/07/16 04:30:16;;;;;;;0.50;0.50;;;11.80;1.00;;;;;;5033042;28;20219;-76
2022/07/16 04:32:42;;;;;;;0.40;0.40;;;11.90;1.00;;;;;;5033536;28;20568;-75
2022/07/16 04:35:11;;;;;;;0.40;0.40;;;11.90;1.00;;;;;;5033478;28;20172;-75
2022/07/16 04:37:37;;;;;;;0.47;0.47;;;12.00;1.00;;;;;;5033487;28;20199;-76
2022/07/16 04:40:04;;;;;;;0.53;0.53;;;12.10;1.00;;;;;;5032813;28;20176;-75
2022/07/16 04:42:30;;;;;;;0.50;0.50;;;12.30;1.00;;;;;;5033003;28;20203;-76
2022/07/16 04:44:56;;;;;;;0.60;0.60;;;12.50;1.00;;;;;;5033351;28;20182;-75
2022/07/16 04:47:21;;;;;;;0.50;0.50;;;12.60;1.00;;;;;;5033122;28;20283;-75
2022/07/16 04:49:47;;;;;;;0.50;0.50;;;12.50;1.00;;;;;;5032482;28;20188;-75
2022/07/16 04:52:12;;;;;;;0.50;0.50;;;12.30;1.00;;;;;;5032747;28;20219;-75
2022/07/16 04:54:38;;;;;;;0.50;0.50;;;12.20;1.00;;;;;;5032798;28;20191;-75
2022/07/16 04:57:03;;;;;;;0.40;0.40;;;12.30;1.00;;;;;;5035673;28;20225;-75
2022/07/16 04:59:29;;;;;;;0.50;0.50;;;12.50;1.00;;;;;;5043907;28;20221;-76
2022/07/16 05:02:56;;;;;;;0.40;0.40;;;12.60;1.00;;;;;;5036095;28;20211;-76
2022/07/16 05:04:40;;;;;;;0.50;0.50;;;12.70;1.00;;;;;;5032908;28;20168;-75
2022/07/16 05:07:06;;;;;;;0.50;0.50;;;12.60;1.00;;;;;;5033284;28;20171;-75
2022/07/16 05:09:31;;;;;;;0.40;0.40;;;12.70;1.00;;;;;;5032153;28;20175;-76
2022/07/16 05:11:57;;;;;;;0.50;0.50;;;12.80;1.00;;;;;;5032933;28;20754;-75
2022/07/16 05:14:22;;;;;;;0.40;0.40;;;13.00;1.00;;;;;;5032902;28;20176;-76
2022/07/16 05:16:48;;;;;;;0.50;0.50;;;13.40;1.00;;;;;;5032717;28;20183;-76
2022/07/16 05:19:13;;;;;;;0.40;0.40;;;13.70;1.00;;;;;;5032147;28;20188;-75
2022/07/16 05:21:38;;;;;;;0.50;0.50;;;13.80;1.00;;;;;;5032337;28;20179;-76
2022/07/16 05:24:04;;;;;;;0.43;0.43;;;13.90;99.90;;;;;;5035886;28;20237;-76
2022/07/16 05:26:31;;;;;;;0.47;0.47;;;13.70;99.90;;;;;;5043831;28;20687;-76
2022/07/16 05:28:56;;;;;;;0.47;0.47;;;13.60;1.00;;;;;;5051886;28;20258;-76
2022/07/16 05:31:22;;;;;;;0.40;0.40;;;13.60;1.00;;;;;;5050670;28;20218;-76
2022/07/16 05:33:48;;;;;;;0.40;0.40;;;13.60;1.00;;;;;;5052180;28;20199;-77
2022/07/16 05:36:13;;;;;;;0.50;0.50;;;13.50;1.00;;;;;;5052041;28;20598;-76
2022/07/16 05:38:39;;;;;;;0.40;0.40;;;13.40;1.00;;;;;;5051959;28;20710;-76
2022/07/16 05:41:04;;;;;;;0.40;0.40;;;13.50;1.00;;;;;;5051771;28;20186;-76
2022/07/16 05:43:30;;;;;;;0.40;0.40;;;13.80;1.00;;;;;;5043862;28;20204;-76
2022/07/16 05:45:55;;;;;;;0.50;0.50;;;14.10;99.90;;;;;;5043066;28;20175;-76
2022/07/16 05:48:21;;;;;;;0.40;0.40;;;14.30;99.90;;;;;;5035842;28;20213;-76
2022/07/16 05:50:46;;;;;;;0.30;0.30;;;14.70;1.00;;;;;;5041961;28;20227;-75
2022/07/16 05:53:12;;;;;;;0.30;0.30;;;15.00;99.90;;;;;;5039632;28;20196;-76
2022/07/16 05:55:37;;;;;;;0.30;0.30;;;15.20;99.90;;;;;;5049461;28;20644;-75
2022/07/16 05:58:03;;;;;;;0.30;0.30;;;15.50;99.90;;;;;;5051731;28;20167;-76
2022/07/16 06:00:29;;;;;;;0.30;0.30;;;15.50;99.90;;;;;;5039851;28;20181;-75
2022/07/16 06:02:54;;;;;;;0.30;0.30;;;15.50;99.90;;;;;;5042885;28;20191;-75
2022/07/16 06:05:20;;;;;;;0.30;0.30;;;15.30;1.00;;;;;;5051693;28;20203;-75
2022/07/16 06:07:45;;;;;;;0.30;0.30;;;15.20;99.90;;;;;;5051611;28;20213;-75
2022/07/16 06:10:11;;;;;;;0.40;0.40;;;15.10;34.60;;;;;;5050890;28;20656;-75
2022/07/16 06:12:37;;;;;;;0.40;0.40;;;15.20;99.90;;;;;;5051856;28;20202;-74
2022/07/16 06:15:04;;;;;;;0.30;0.30;;;15.30;1.00;;;;;;5051555;28;20199;-75
2022/07/16 06:17:30;;;;;;;0.30;0.30;;;15.50;99.90;;;;;;5051626;28;20185;-71
2022/07/16 06:19:55;;;;;;;0.40;0.40;;;15.80;99.90;;;;;;5050999;28;20254;-73
2022/07/16 06:22:21;;;;;;;0.37;0.37;;;16.10;99.90;;;;;;5051321;28;20191;-74
2022/07/16 06:24:46;;;;;;;0.30;0.30;;;16.60;1.00;;;;;;5051425;28;20232;-73
2022/07/16 06:27:12;;;;;;;0.40;0.40;;;17.00;99.90;;;;;;5039617;28;20207;-74
2022/07/16 06:29:38;;;;;;;0.50;0.50;;;17.20;86.70;;;;;;5030887;28;20195;-76
2022/07/16 06:32:04;;;;;;;0.20;0.20;;;17.30;1.00;;;;;;5031346;28;20565;-74
2022/07/16 06:34:30;;;;;;;0.37;0.37;;;17.20;1.00;;;;;;5031431;28;20186;-74
2022/07/16 06:36:55;;;;;;;0.20;0.20;;;17.20;1.00;;;;;;5031422;28;20187;-75
2022/07/16 06:39:20;;;;;;;0.30;0.30;;;17.40;1.00;;;;;;5030577;28;20167;-75
2022/07/16 06:41:46;;;;;;;0.20;0.20;;;17.40;1.00;;;;;;5030823;28;20199;-75
2022/07/16 06:44:12;;;;;;;0.30;0.30;;;17.30;1.00;;;;;;5028255;28;20184;-73
2022/07/16 06:46:37;;;;;;;0.37;0.37;;;17.20;1.00;;;;;;5031210;28;20179;-74
2022/07/16 06:49:03;;;;;;;0.30;0.30;;;17.30;1.00;;;;;;5030752;28;20207;-73
2022/07/16 06:51:28;;;;;;;0.27;0.27;;;17.40;1.00;;;;;;5031060;28;20196;-74
2022/07/16 06:53:54;;;;;;;0.30;0.30;;;17.40;1.00;;;;;;5031111;28;20623;-73
2022/07/16 06:56:19;;;;;;;0.30;0.30;;;17.50;1.00;;;;;;5033981;28;20596;-73
2022/07/16 06:58:45;;;;;;;0.20;0.20;;;17.60;1.00;;;;;;5035190;28;20259;-75
2022/07/16 07:01:11;;;;;;;0.23;0.23;;;17.80;1.00;;;;;;5035618;28;20180;-75
2022/07/16 07:03:40;;;;;;;0.40;0.40;;;18.00;1.00;;;;;;5035118;28;20897;-76
2022/07/16 07:06:07;;;;;;;0.30;0.30;;;18.20;1.00;;;;;;5034500;28;20180;-75
2022/07/16 07:08:32;;;;;;;0.30;0.30;;;18.40;1.00;;;;;;5034417;28;20194;-75
2022/07/16 07:10:59;;;;;;;0.30;0.30;;;18.60;1.00;;;;;;5034436;28;20215;-75
2022/07/16 07:13:26;;;;;;;0.30;0.30;;;18.90;1.00;;;;;;5034766;28;20274;-73
2022/07/16 07:15:51;;;;;;;0.30;0.30;;;19.10;1.00;;;;;;5033649;28;20206;-74
2022/07/16 07:18:17;;;;;;;0.30;0.30;;;19.40;1.00;;;;;;5034219;28;20172;-74
2022/07/16 07:20:42;;;;;;;0.23;0.23;;;19.60;1.00;;;;;;5033584;28;20534;-72
2022/07/16 07:23:09;;;;;;;0.30;0.30;;;19.60;1.00;;;;;;5033909;28;20254;-72
2022/07/16 07:25:36;;;;;;;0.30;0.30;;;19.80;1.00;;;;;;5034087;28;20182;-74
2022/07/16 07:28:01;;;;;;;0.40;0.40;;;19.90;1.00;;;;;;5034777;28;20184;-74
2022/07/16 07:30:27;;;;;;;0.30;0.30;;;20.00;1.00;;;;;;5034110;28;20349;-74
2022/07/16 07:32:52;;;;;;;0.30;0.30;;;19.90;1.00;;;;;;5034396;28;20665;-75
2022/07/16 07:35:18;;;;;;;0.30;0.30;;;20.00;1.00;;;;;;5034351;28;20172;-74
2022/07/16 07:37:43;;;;;;;0.20;0.20;;;20.30;1.00;;;;;;5034609;28;20552;-74
2022/07/16 07:40:09;;;;;;;0.30;0.30;;;20.40;1.00;;;;;;5033847;28;20644;-74
2022/07/16 07:42:35;;;;;;;0.30;0.30;;;20.40;1.00;;;;;;5034141;28;20207;-74
2022/07/16 07:45:00;;;;;;;0.30;0.30;;;20.50;1.00;;;;;;5034408;28;20183;-73
2022/07/16 07:47:27;;;;;;;0.30;0.30;;;20.50;1.00;;;;;;5034451;28;20262;-74
2022/07/16 07:49:53;;;;;;;0.30;0.30;;;20.40;1.00;;;;;;5033521;28;20192;-74
2022/07/16 07:52:18;;;;;;;0.30;0.30;;;20.70;1.00;;;;;;5034149;28;20215;-73
2022/07/16 07:54:44;;;;;;;0.30;0.30;;;20.90;1.00;;;;;;5034297;28;20179;-77
2022/07/16 07:57:10;;;;;;;0.30;0.30;;;21.20;1.00;;;;;;5035078;28;20218;-76
2022/07/16 07:59:35;;;;;;;0.20;0.20;;;21.60;1.00;;;;;;5034438;28;20565;-77
2022/07/16 08:02:01;;;;;;;0.20;0.20;;;22.00;1.00;;;;;;5034274;28;20191;-76
2022/07/16 08:04:26;;;;;;;0.27;0.27;;;22.70;1.00;;;;;;5034258;28;20587;-76
2022/07/16 08:06:52;;;;;;;0.30;0.30;;;23.10;1.00;;;;;;5033840;28;20234;-77
2022/07/16 08:09:17;;;;;;;0.20;0.20;;;23.60;1.00;;;;;;5034030;28;20702;-77
2022/07/16 08:11:43;;;;;;;0.30;0.30;;;24.20;1.00;;;;;;5034355;28;20211;-76
2022/07/16 08:14:09;;;;;;;0.30;0.30;;;24.70;1.00;;;;;;5034018;28;20179;-75
2022/07/16 08:16:34;;;;;;;0.33;0.33;;;25.20;1.00;;;;;;5034148;28;20229;-76
2022/07/16 08:19:00;;;;;;;0.20;0.20;;;25.60;1.00;;;;;;5033790;28;20184;-76
2022/07/16 08:21:26;;;;;;;0.30;0.30;;;25.70;1.00;;;;;;5034222;28;20611;-76
2022/07/16 08:26:36;;;;;;;0.30;0.30;;;26.10;1.00;;;;;;5034627;28;20182;-76
2022/07/16 08:29:02;;;;;;;0.40;0.40;;;26.40;1.00;;;;;;5033587;28;20171;-76
2022/07/16 08:31:27;;;;;;;0.40;0.40;;;26.80;1.00;;;;;;5034026;28;20294;-76
2022/07/16 08:33:53;;;;;;;0.30;0.30;;;26.80;1.00;;;;;;5033870;28;20199;-76
2022/07/16 08:36:19;;;;;;;0.40;0.40;;;26.90;1.00;;;;;;5035846;28;20184;-77
2022/07/16 08:38:44;;;;;;;0.30;0.30;;;26.90;1.00;;;;;;5034896;28;20176;-77
2022/07/16 08:41:11;;;;;;;0.30;0.30;;;27.00;1.00;;;;;;5034283;28;20180;-77
2022/07/16 08:43:37;;;;;;;0.33;0.33;;;27.30;1.00;;;;;;5034239;28;20227;-77
2022/07/16 08:46:03;;;;;;;0.30;0.30;;;27.50;1.00;;;;;;5034022;28;20589;-77
2022/07/16 08:48:30;;;;;;;0.40;0.40;;;27.70;1.00;;;;;;5033436;28;20192;-76
2022/07/16 08:50:58;;;;;;;0.30;0.30;;;27.80;1.00;;;;;;5033651;28;20243;-76
2022/07/16 08:53:24;;;;;;;0.40;0.40;;;28.10;1.00;;;;;;5034088;28;20202;-77
2022/07/16 08:55:54;;;;;;;0.40;0.40;;;28.30;1.00;;;;;;5034895;28;20180;-77
2022/07/16 08:58:20;;;;;;;0.43;0.43;;;28.30;1.00;;;;;;5034776;28;20206;-77
2022/07/16 09:00:45;;;;;;;0.30;0.30;;;28.30;1.00;;;;;;5034300;28;20176;-77
2022/07/16 09:03:15;;;;;;;0.30;0.30;;;28.20;1.00;;;;;;5034922;28;20196;-79
2022/07/16 09:05:41;;;;;;;0.43;0.43;;;28.10;1.00;;;;;;5033954;28;20199;-78
2022/07/16 09:08:07;;;;;;;0.40;0.40;;;28.10;1.00;;;;;;5033375;28;20242;-76
2022/07/16 09:10:35;;;;;;;0.50;0.50;;;28.30;1.00;;;;;;5033295;28;20211;-76
2022/07/16 09:13:01;;;;;;;0.30;0.30;;;28.20;1.00;;;;;;5033366;28;20229;-77
2022/07/16 09:15:40;;;;;;;0.30;0.30;;;28.20;1.00;;;;;;5033505;28;20259;-77
2022/07/16 09:18:23;;;;;;;0.50;0.50;;;28.10;1.00;;;;;;5033047;28;20184;-77
2022/07/16 09:20:57;;;;;;;0.30;0.30;;;28.10;1.00;;;;;;5032935;28;20579;-77
2022/07/16 09:23:27;;;;;;;0.40;0.40;;;28.40;1.00;;;;;;5033329;28;20734;-77
2022/07/16 09:26:00;;;;;;;0.20;0.20;;;28.50;1.00;;;;;;5033511;28;20176;-77
2022/07/16 09:28:37;;;;;;;0.33;0.33;;;28.50;1.00;;;;;;5033707;28;20172;-77
2022/07/16 09:31:02;;;;;;;0.40;0.40;;;28.30;1.00;;;;;;5033070;28;20204;-75
2022/07/16 09:33:28;;;;;;;0.30;0.30;;;28.40;1.00;;;;;;5032425;28;20191;-75
2022/07/16 09:36:11;;;;;;;0.40;0.40;;;28.70;1.00;;;;;;5032549;28;20194;-75
2022/07/16 09:38:47;;;;;;;0.40;0.40;;;28.90;1.00;;;;;;5032654;28;20180;-75
2022/07/16 09:41:14;;;;;;;0.40;0.40;;;29.10;1.00;;;;;;5031766;28;20168;-75
2022/07/16 09:43:42;;;;;;;0.30;0.30;;;29.30;1.00;;;;;;5032278;28;20196;-75
2022/07/16 09:46:13;;;;;;;0.40;0.40;;;29.30;1.00;;;;;;5032402;28;20175;-74
2022/07/16 09:48:44;;;;;;;0.40;0.40;;;29.30;1.00;;;;;;5032583;28;20195;-75
2022/07/16 09:51:28;;;;;;;0.50;0.50;;;29.40;1.00;;;;;;5031547;28;20230;-75
2022/07/16 09:53:55;;;;;;;0.27;0.27;;;29.60;1.00;;;;;;5032290;28;20176;-75
2022/07/16 09:56:24;;;;;;;0.40;0.40;;;29.20;1.00;;;;;;5032077;28;20536;-75
2022/07/16 09:58:52;;;;;;;0.23;0.23;;;29.00;1.00;;;;;;5032122;28;20226;-77
2022/07/16 10:01:19;;;;;;;0.50;0.50;;;29.00;1.00;;;;;;5032123;28;20180;-75
2022/07/16 10:03:45;;;;;;;0.37;0.37;;;29.30;1.00;;;;;;5031382;28;20196;-78
2022/07/16 10:06:11;;;;;;;0.40;0.40;;;29.20;1.00;;;;;;5032219;28;20330;-77
2022/07/16 10:08:38;;;;;;;0.40;0.40;;;29.10;1.00;;;;;;5032290;28;20175;-77
2022/07/16 10:11:04;;;;;;;0.30;0.30;;;29.20;1.00;;;;;;5030631;28;20715;-78
2022/07/16 10:13:32;;;;;;;0.37;0.37;;;29.20;1.00;;;;;;5032193;28;20286;-79
2022/07/16 10:15:57;;;;;;;0.40;0.40;;;29.40;1.00;;;;;;5030879;28;20180;-79
2022/07/16 10:18:44;;;;;;;0.40;0.40;;;29.30;1.00;;;;;;5032233;28;20171;-78
2022/07/16 10:21:13;;;;;;;0.50;0.50;;;29.40;1.00;;;;;;5031648;28;20176;-78
2022/07/16 10:23:41;;;;;;;0.43;0.43;;;29.30;1.00;;;;;;5032081;28;20230;-77
2022/07/16 10:26:12;;;;;;;0.50;0.50;;;29.40;1.00;;;;;;5031885;28;20172;-76
2022/07/16 10:28:45;;;;;;;0.40;0.40;;;29.20;1.00;;;;;;5031641;28;20194;-80
2022/07/16 10:31:36;;;;;;;0.40;0.40;;;28.80;1.00;;;;;;5032941;28;20211;-82
2022/07/16 10:34:14;;;;;;;0.40;0.40;;;28.80;1.00;;;;;;5032732;28;20172;-81
2022/07/16 10:36:52;;;;;;;0.40;0.40;;;28.90;1.00;;;;;;5034619;28;20518;-78
2022/07/16 10:39:19;;;;;;;0.30;0.30;;;28.90;1.00;;;;;;5034173;28;20218;-78
2022/07/16 10:41:59;;;;;;;0.50;0.50;;;28.90;1.00;;;;;;5034339;28;20183;-80
2022/07/16 10:44:45;;;;;;;0.40;0.40;;;29.10;1.00;;;;;;5034288;28;20186;-79
2022/07/16 10:47:11;;;;;;;0.30;0.30;;;29.30;1.00;;;;;;5036094;28;20533;-81
2022/07/16 10:49:37;;;;;;;0.30;0.30;;;29.50;1.00;;;;;;5033866;28;20254;-78
2022/07/16 10:52:14;;;;;;;0.37;0.37;;;29.80;1.00;;;;;;5032960;28;20235;-79
2022/07/16 10:54:49;;;;;;;0.50;0.50;;;30.00;1.00;;;;;;5033858;28;20258;-80
2022/07/16 10:57:21;;;;;;;0.47;0.47;;;29.80;1.00;;;;;;5033391;28;20188;-79
2022/07/16 10:59:48;;;;;;;0.30;0.30;;;29.60;1.00;;;;;;5033969;28;20172;-80
2022/07/16 11:02:20;;;;;;;0.47;0.47;;;29.30;1.00;;;;;;5034003;28;20337;-79
2022/07/16 11:04:47;;;;;;;0.43;0.43;;;29.10;1.00;;;;;;5033896;28;20317;-81
2022/07/16 11:07:18;;;;;;;0.43;0.43;;;29.10;1.00;;;;;;5033610;28;20172;-80
2022/07/16 11:09:47;;;;;;;0.40;0.40;;;29.30;1.00;;;;;;5033435;28;20295;-79
2022/07/16 11:12:25;;;;;;;0.37;0.37;;;29.60;1.00;;;;;;5033208;28;20281;-80
2022/07/16 11:14:54;;;;;;;0.43;0.43;;;29.70;1.00;;;;;;5033771;28;20191;-78
2022/07/16 11:17:22;;;;;;;0.50;0.50;;;29.60;1.00;;;;;;5032642;28;20180;-81
2022/07/16 11:19:50;;;;;;;0.50;0.50;;;29.80;1.00;;;;;;5033804;28;20164;-83
2022/07/16 11:22:20;;;;;;;0.30;0.30;;;29.50;1.00;;;;;;5034260;28;20200;-81
2022/07/16 11:24:54;;;;;;;0.37;0.37;;;29.20;1.00;;;;;;5033525;28;20811;-79
2022/07/16 11:27:32;;;;;;;0.33;0.33;;;29.30;1.00;;;;;;5033582;28;20262;-81
2022/07/16 11:30:00;;;;;;;0.37;0.37;;;29.30;1.00;;;;;;5033695;28;20526;-80
2022/07/16 11:32:26;;;;;;;0.50;0.50;;;29.50;1.00;;;;;;5033632;28;20219;-81
2022/07/16 11:34:52;;;;;;;0.37;0.37;;;29.80;1.00;;;;;;5034749;28;20537;-81
2022/07/16 11:37:18;;;;;;;0.40;0.40;;;29.70;1.00;;;;;;5034033;28;20180;-81
2022/07/16 11:39:43;;;;;;;0.40;0.40;;;30.00;1.00;;;;;;5034209;28;20191;-82
2022/07/16 11:42:09;;;;;;;0.30;0.30;;;30.30;1.00;;;;;;5036204;28;20200;-81
2022/07/16 11:44:39;;;;;;;0.57;0.57;;;30.70;1.00;;;;;;5037404;28;20196;-82
2022/07/16 11:47:07;;;;;;;0.60;0.60;;;30.90;1.00;;;;;;5038405;28;20186;-82
2022/07/16 11:49:44;;;;;;;0.50;0.50;;;31.10;1.00;;;;;;5038088;28;20262;-78
2022/07/16 11:52:22;;;;;;;0.50;0.50;;;30.70;1.00;;;;;;5037595;28;20223;-78
2022/07/16 11:54:49;;;;;;;0.50;0.50;;;30.40;1.00;;;;;;5032082;28;20163;-79
2022/07/16 11:57:15;;;;;;;0.40;0.40;;;30.40;1.00;;;;;;5047785;28;20182;-79
2022/07/16 11:59:54;;;;;;;0.60;0.60;;;30.50;1.00;;;;;;5051368;28;20186;-78
2022/07/16 12:02:25;;;;;;;0.50;0.50;;;30.50;1.00;;;;;;5051501;28;20230;-80
2022/07/16 12:04:56;;;;;;;0.47;0.47;;;30.50;1.00;;;;;;5024668;28;20177;-77
2022/07/16 12:07:25;;;;;;;0.50;0.50;;;30.50;1.00;;;;;;5031713;28;20179;-78
2022/07/16 12:09:55;;;;;;;0.40;0.40;;;30.60;1.00;;;;;;5042477;28;20238;-77
2022/07/16 12:12:23;;;;;;;0.50;0.50;;;30.40;1.00;;;;;;5024118;28;20232;-78
2022/07/16 12:14:52;;;;;;;0.40;0.40;;;30.40;1.00;;;;;;5027874;28;20184;-78
2022/07/16 12:17:20;;;;;;;0.50;0.50;;;30.50;1.00;;;;;;5025469;28;20254;-79
2022/07/16 12:20:06;;;;;;;0.50;0.50;;;30.80;1.00;;;;;;5025834;28;20195;-78
2022/07/16 12:22:55;;;;;;;0.50;0.50;;;31.10;1.00;;;;;;5017303;28;20200;-80
2022/07/16 12:25:27;;;;;;;0.50;0.50;;;31.10;1.00;;;;;;5016779;28;20231;-79
2022/07/16 12:27:59;;;;;;;0.50;0.50;;;30.90;1.00;;;;;;5016882;28;20172;-79
2022/07/16 12:30:50;;;;;;;0.40;0.40;;;30.70;1.00;;;;;;5024122;28;20188;-80
2022/07/16 12:33:15;;;;;;;0.50;0.50;;;30.70;1.00;;;;;;5037179;28;20237;-79
2022/07/16 12:35:58;;;;;;;0.40;0.40;;;30.80;1.00;;;;;;5037301;28;20266;-80
2022/07/16 12:38:55;;;;;;;0.43;0.43;;;30.90;1.00;;;;;;5035867;28;20171;-80
2022/07/16 12:41:41;;;;;;;0.47;0.47;;;30.80;1.00;;;;;;5035401;28;20187;-80
2022/07/16 12:44:15;;;;;;;0.50;0.50;;;30.70;1.00;;;;;;5034511;28;20176;-79
2022/07/16 12:46:46;;;;;;;0.50;0.50;;;30.50;1.00;;;;;;5036953;28;20637;-81
2022/07/16 12:49:16;;;;;;;0.50;0.50;;;30.70;1.00;;;;;;5035627;28;20199;-79
2022/07/16 12:51:44;;;;;;;0.47;0.47;;;30.70;1.00;;;;;;5034114;28;20204;-83
2022/07/16 12:54:12;;;;;;;0.50;0.50;;;30.80;1.00;;;;;;5042930;28;20204;-82
2022/07/16 12:59:24;;;;;;;0.50;0.50;;;30.90;1.00;;;;;;5069060;28;20170;-85
2022/07/16 13:01:49;;;;;;;0.43;0.43;;;30.60;1.00;;;;;;5047362;28;20254;-82
2022/07/16 13:04:15;;;;;;;0.40;0.40;;;30.50;1.00;;;;;;5051561;28;20168;-79
2022/07/16 13:06:41;;;;;;;0.30;0.30;;;30.60;1.00;;;;;;5054470;28;20180;-86